sensor_id;sensor_type;location;lat;lon;timestamp;P1;durP1;ratioP1;P2;durP2;ratioP2
9174;SDS011;54374;50.196;8.050;2022-08-02T00:00:16;7.13;;;3.97;;
9174;SDS011;54374;50.196;8.050;2022-08-02T00:02:44;5.60;;;3.93;;
9174;SDS011;54374;50.196;8.050;2022-08-02T00:05:14;5.50;;;3.87;;
9174;SDS011;54374;50.196;8.050;2022-08-02T00:07:41;5.20;;;3.90;;
9174;SDS011;54374;50.196;8.050;2022-08-02T00:10:11;5.53;;;3.90;;
9174;SDS011;54374;50.196;8.050;2022-08-02T00:12:38;4.20;;;3.60;;
9174;SDS011;54374;50.196;8.050;2022-08-02T00:15:06;4.57;;;3.53;;
9174;SDS011;54374;50.196;8.050;2022-08-02T00:17:36;5.03;;;4.13;;
9174;SDS011;54374;50.196;8.050;2022-08-02T00:20:03;5.63;;;3.67;;
9174;SDS011;54374;50.196;8.050;2022-08-02T00:22:31;9.40;;;4.23;;
9174;SDS011;54374;50.196;8.050;2022-08-02T00:24:58;5.73;;;4.30;;
9174;SDS011;54374;50.196;8.050;2022-08-02T00:27:26;5.50;;;4.10;;
9174;SDS011;54374;50.196;8.050;2022-08-02T00:29:53;3.80;;;3.50;;
9174;SDS011;54374;50.196;8.050;2022-08-02T00:32:21;5.20;;;4.13;;
9174;SDS011;54374;50.196;8.050;2022-08-02T00:34:51;6.40;;;4.40;;
9174;SDS011;54374;50.196;8.050;2022-08-02T00:37:18;5.30;;;3.87;;
9174;SDS011;54374;50.196;8.050;2022-08-02T00:39:45;5.00;;;3.93;;
9174;SDS011;54374;50.196;8.050;2022-08-02T00:42:12;4.63;;;3.90;;
9174;SDS011;54374;50.196;8.050;2022-08-02T00:44:40;4.53;;;3.73;;
9174;SDS011;54374;50.196;8.050;2022-08-02T00:47:07;4.67;;;3.47;;
9174;SDS011;54374;50.196;8.050;2022-08-02T00:49:35;8.80;;;4.17;;
9174;SDS011;54374;50.196;8.050;2022-08-02T00:52:04;6.97;;;4.30;;
9174;SDS011;54374;50.196;8.050;2022-08-02T00:54:31;3.80;;;3.40;;
9174;SDS011;54374;50.196;8.050;2022-08-02T00:56:58;7.80;;;4.37;;
9174;SDS011;54374;50.196;8.050;2022-08-02T00:59:26;3.87;;;3.50;;
9174;SDS011;54374;50.196;8.050;2022-08-02T01:01:53;5.05;;;3.65;;
9174;SDS011;54374;50.196;8.050;2022-08-02T01:04:20;5.25;;;4.50;;
9174;SDS011;54374;50.196;8.050;2022-08-02T01:06:48;5.93;;;4.50;;
9174;SDS011;54374;50.196;8.050;2022-08-02T01:09:16;5.07;;;3.80;;
9174;SDS011;54374;50.196;8.050;2022-08-02T01:11:43;4.53;;;3.57;;
9174;SDS011;54374;50.196;8.050;2022-08-02T01:14:12;3.95;;;3.50;;
9174;SDS011;54374;50.196;8.050;2022-08-02T01:16:42;3.70;;;3.35;;
9174;SDS011;54374;50.196;8.050;2022-08-02T01:19:21;5.95;;;4.03;;
9174;SDS011;54374;50.196;8.050;2022-08-02T01:22:05;5.03;;;3.92;;
9174;SDS011;54374;50.196;8.050;2022-08-02T01:25:05;7.55;;;3.78;;
9174;SDS011;54374;50.196;8.050;2022-08-02T01:30:39;6.15;;;4.30;;
9174;SDS011;54374;50.196;8.050;2022-08-02T01:33:08;4.75;;;4.05;;
9174;SDS011;54374;50.196;8.050;2022-08-02T01:35:43;4.20;;;3.80;;
9174;SDS011;54374;50.196;8.050;2022-08-02T01:38:13;4.18;;;3.67;;
9174;SDS011;54374;50.196;8.050;2022-08-02T01:40:47;5.60;;;3.65;;
9174;SDS011;54374;50.196;8.050;2022-08-02T01:43:17;5.47;;;3.70;;
9174;SDS011;54374;50.196;8.050;2022-08-02T01:45:46;6.25;;;3.78;;
9174;SDS011;54374;50.196;8.050;2022-08-02T01:48:14;5.80;;;4.03;;
9174;SDS011;54374;50.196;8.050;2022-08-02T01:50:42;5.40;;;4.35;;
9174;SDS011;54374;50.196;8.050;2022-08-02T01:53:12;4.53;;;3.25;;
9174;SDS011;54374;50.196;8.050;2022-08-02T01:55:42;4.93;;;4.07;;
9174;SDS011;54374;50.196;8.050;2022-08-02T01:58:11;4.72;;;3.65;;
9174;SDS011;54374;50.196;8.050;2022-08-02T02:00:43;4.65;;;3.70;;
9174;SDS011;54374;50.196;8.050;2022-08-02T02:04:02;4.63;;;3.80;;
9174;SDS011;54374;50.196;8.050;2022-08-02T02:06:31;4.22;;;3.70;;
9174;SDS011;54374;50.196;8.050;2022-08-02T02:08:59;4.72;;;3.92;;
9174;SDS011;54374;50.196;8.050;2022-08-02T02:11:27;5.43;;;3.85;;
9174;SDS011;54374;50.196;8.050;2022-08-02T02:13:54;5.32;;;4.00;;
9174;SDS011;54374;50.196;8.050;2022-08-02T02:16:25;4.13;;;3.50;;
9174;SDS011;54374;50.196;8.050;2022-08-02T02:18:53;4.18;;;3.78;;
9174;SDS011;54374;50.196;8.050;2022-08-02T02:21:20;4.68;;;4.00;;
9174;SDS011;54374;50.196;8.050;2022-08-02T02:23:47;5.55;;;3.60;;
9174;SDS011;54374;50.196;8.050;2022-08-02T02:26:15;5.07;;;4.22;;
9174;SDS011;54374;50.196;8.050;2022-08-02T02:28:43;5.15;;;4.20;;
9174;SDS011;54374;50.196;8.050;2022-08-02T02:31:14;4.90;;;4.00;;
9174;SDS011;54374;50.196;8.050;2022-08-02T02:33:47;4.22;;;3.83;;
9174;SDS011;54374;50.196;8.050;2022-08-02T02:36:16;4.60;;;4.18;;
9174;SDS011;54374;50.196;8.050;2022-08-02T02:38:46;6.07;;;4.28;;
9174;SDS011;54374;50.196;8.050;2022-08-02T02:41:14;6.07;;;4.13;;
9174;SDS011;54374;50.196;8.050;2022-08-02T02:43:43;5.25;;;3.95;;
9174;SDS011;54374;50.196;8.050;2022-08-02T02:46:14;7.05;;;5.32;;
9174;SDS011;54374;50.196;8.050;2022-08-02T02:48:47;4.55;;;3.85;;
9174;SDS011;54374;50.196;8.050;2022-08-02T02:51:17;4.60;;;4.20;;
9174;SDS011;54374;50.196;8.050;2022-08-02T02:53:47;6.00;;;3.90;;
9174;SDS011;54374;50.196;8.050;2022-08-02T02:56:15;6.20;;;3.97;;
9174;SDS011;54374;50.196;8.050;2022-08-02T02:58:43;4.95;;;3.90;;
9174;SDS011;54374;50.196;8.050;2022-08-02T03:01:11;7.43;;;4.32;;
9174;SDS011;54374;50.196;8.050;2022-08-02T03:03:59;4.35;;;3.83;;
9174;SDS011;54374;50.196;8.050;2022-08-02T03:06:31;5.38;;;4.32;;
9174;SDS011;54374;50.196;8.050;2022-08-02T03:08:58;6.18;;;3.78;;
9174;SDS011;54374;50.196;8.050;2022-08-02T03:11:26;6.28;;;4.03;;
9174;SDS011;54374;50.196;8.050;2022-08-02T03:13:55;5.65;;;4.35;;
9174;SDS011;54374;50.196;8.050;2022-08-02T03:16:23;4.68;;;4.10;;
9174;SDS011;54374;50.196;8.050;2022-08-02T03:18:52;4.38;;;3.70;;
9174;SDS011;54374;50.196;8.050;2022-08-02T03:21:21;3.95;;;3.55;;
9174;SDS011;54374;50.196;8.050;2022-08-02T03:23:49;5.35;;;4.45;;
9174;SDS011;54374;50.196;8.050;2022-08-02T03:26:16;4.65;;;4.18;;
9174;SDS011;54374;50.196;8.050;2022-08-02T03:28:43;5.15;;;4.25;;
9174;SDS011;54374;50.196;8.050;2022-08-02T03:31:10;4.68;;;4.15;;
9174;SDS011;54374;50.196;8.050;2022-08-02T03:33:38;7.55;;;3.55;;
9174;SDS011;54374;50.196;8.050;2022-08-02T03:36:07;4.00;;;3.50;;
9174;SDS011;54374;50.196;8.050;2022-08-02T03:38:38;4.30;;;3.90;;
9174;SDS011;54374;50.196;8.050;2022-08-02T03:41:07;6.25;;;4.13;;
9174;SDS011;54374;50.196;8.050;2022-08-02T03:43:37;5.35;;;4.05;;
9174;SDS011;54374;50.196;8.050;2022-08-02T03:46:05;3.83;;;3.53;;
9174;SDS011;54374;50.196;8.050;2022-08-02T03:48:34;6.13;;;4.70;;
9174;SDS011;54374;50.196;8.050;2022-08-02T03:51:03;4.72;;;4.28;;
9174;SDS011;54374;50.196;8.050;2022-08-02T03:53:31;4.72;;;4.25;;
9174;SDS011;54374;50.196;8.050;2022-08-02T03:56:00;5.22;;;4.47;;
9174;SDS011;54374;50.196;8.050;2022-08-02T03:58:27;6.50;;;3.97;;
9174;SDS011;54374;50.196;8.050;2022-08-02T04:00:55;5.32;;;4.38;;
9174;SDS011;54374;50.196;8.050;2022-08-02T04:03:23;5.93;;;4.30;;
9174;SDS011;54374;50.196;8.050;2022-08-02T04:05:50;6.50;;;4.45;;
9174;SDS011;54374;50.196;8.050;2022-08-02T04:08:18;5.57;;;3.90;;
9174;SDS011;54374;50.196;8.050;2022-08-02T04:10:45;5.15;;;4.18;;
9174;SDS011;54374;50.196;8.050;2022-08-02T04:13:32;4.60;;;4.13;;
9174;SDS011;54374;50.196;8.050;2022-08-02T04:16:02;4.45;;;4.05;;
9174;SDS011;54374;50.196;8.050;2022-08-02T04:18:35;4.70;;;4.18;;
9174;SDS011;54374;50.196;8.050;2022-08-02T04:21:06;5.80;;;4.50;;
9174;SDS011;54374;50.196;8.050;2022-08-02T04:23:37;4.35;;;3.90;;
9174;SDS011;54374;50.196;8.050;2022-08-02T04:26:05;5.50;;;4.90;;
9174;SDS011;54374;50.196;8.050;2022-08-02T04:28:35;6.00;;;4.57;;
9174;SDS011;54374;50.196;8.050;2022-08-02T04:31:05;5.47;;;4.10;;
9174;SDS011;54374;50.196;8.050;2022-08-02T04:33:33;5.78;;;4.47;;
9174;SDS011;54374;50.196;8.050;2022-08-02T04:36:01;4.50;;;4.05;;
9174;SDS011;54374;50.196;8.050;2022-08-02T04:38:28;5.60;;;3.80;;
9174;SDS011;54374;50.196;8.050;2022-08-02T04:40:55;6.28;;;4.65;;
9174;SDS011;54374;50.196;8.050;2022-08-02T04:43:22;4.63;;;3.92;;
9174;SDS011;54374;50.196;8.050;2022-08-02T04:45:52;4.25;;;3.72;;
9174;SDS011;54374;50.196;8.050;2022-08-02T04:48:20;5.72;;;4.30;;
9174;SDS011;54374;50.196;8.050;2022-08-02T04:50:47;5.93;;;3.97;;
9174;SDS011;54374;50.196;8.050;2022-08-02T04:53:15;4.75;;;4.13;;
9174;SDS011;54374;50.196;8.050;2022-08-02T04:55:42;4.22;;;3.83;;
9174;SDS011;54374;50.196;8.050;2022-08-02T04:58:09;4.03;;;3.55;;
9174;SDS011;54374;50.196;8.050;2022-08-02T05:00:37;6.05;;;3.90;;
9174;SDS011;54374;50.196;8.050;2022-08-02T05:03:05;4.55;;;4.15;;
9174;SDS011;54374;50.196;8.050;2022-08-02T05:05:33;4.38;;;3.67;;
9174;SDS011;54374;50.196;8.050;2022-08-02T05:08:00;5.10;;;3.45;;
9174;SDS011;54374;50.196;8.050;2022-08-02T05:10:27;5.40;;;4.63;;
9174;SDS011;54374;50.196;8.050;2022-08-02T05:12:55;7.45;;;4.18;;
9174;SDS011;54374;50.196;8.050;2022-08-02T05:15:22;4.88;;;3.72;;
9174;SDS011;54374;50.196;8.050;2022-08-02T05:17:49;5.03;;;3.95;;
9174;SDS011;54374;50.196;8.050;2022-08-02T05:20:18;4.50;;;4.10;;
9174;SDS011;54374;50.196;8.050;2022-08-02T05:22:45;3.95;;;3.55;;
9174;SDS011;54374;50.196;8.050;2022-08-02T05:25:12;8.25;;;4.47;;
9174;SDS011;54374;50.196;8.050;2022-08-02T05:27:39;4.38;;;4.07;;
9174;SDS011;54374;50.196;8.050;2022-08-02T05:30:07;4.28;;;3.70;;
9174;SDS011;54374;50.196;8.050;2022-08-02T05:32:41;5.93;;;4.82;;
9174;SDS011;54374;50.196;8.050;2022-08-02T05:35:09;4.70;;;4.20;;
9174;SDS011;54374;50.196;8.050;2022-08-02T05:37:38;4.63;;;4.20;;
9174;SDS011;54374;50.196;8.050;2022-08-02T05:40:06;5.55;;;4.47;;
9174;SDS011;54374;50.196;8.050;2022-08-02T05:42:34;4.75;;;4.05;;
9174;SDS011;54374;50.196;8.050;2022-08-02T05:45:02;4.82;;;4.07;;
9174;SDS011;54374;50.196;8.050;2022-08-02T05:47:30;4.50;;;3.72;;
9174;SDS011;54374;50.196;8.050;2022-08-02T05:49:57;4.95;;;4.40;;
9174;SDS011;54374;50.196;8.050;2022-08-02T05:52:25;4.80;;;4.30;;
9174;SDS011;54374;50.196;8.050;2022-08-02T05:55:00;4.28;;;3.88;;
9174;SDS011;54374;50.196;8.050;2022-08-02T05:57:36;4.18;;;3.78;;
9174;SDS011;54374;50.196;8.050;2022-08-02T06:00:08;4.38;;;3.97;;
9174;SDS011;54374;50.196;8.050;2022-08-02T06:05:31;4.38;;;3.97;;
9174;SDS011;54374;50.196;8.050;2022-08-02T06:08:01;4.65;;;4.07;;
9174;SDS011;54374;50.196;8.050;2022-08-02T06:10:34;5.80;;;3.88;;
9174;SDS011;54374;50.196;8.050;2022-08-02T06:13:04;5.40;;;4.60;;
9174;SDS011;54374;50.196;8.050;2022-08-02T06:15:34;5.20;;;4.32;;
9174;SDS011;54374;50.196;8.050;2022-08-02T06:18:02;4.32;;;3.92;;
9174;SDS011;54374;50.196;8.050;2022-08-02T06:20:31;4.70;;;4.30;;
9174;SDS011;54374;50.196;8.050;2022-08-02T06:23:02;5.75;;;4.70;;
9174;SDS011;54374;50.196;8.050;2022-08-02T06:25:32;4.80;;;4.25;;
9174;SDS011;54374;50.196;8.050;2022-08-02T06:28:02;4.43;;;4.03;;
9174;SDS011;54374;50.196;8.050;2022-08-02T06:30:30;6.43;;;4.00;;
9174;SDS011;54374;50.196;8.050;2022-08-02T06:32:58;4.97;;;4.47;;
9174;SDS011;54374;50.196;8.050;2022-08-02T06:35:29;4.43;;;4.03;;
9174;SDS011;54374;50.196;8.050;2022-08-02T06:38:00;5.00;;;4.50;;
9174;SDS011;54374;50.196;8.050;2022-08-02T06:40:29;4.63;;;4.10;;
9174;SDS011;54374;50.196;8.050;2022-08-02T06:43:11;5.40;;;4.60;;
9174;SDS011;54374;50.196;8.050;2022-08-02T06:45:43;4.10;;;3.80;;
9174;SDS011;54374;50.196;8.050;2022-08-02T06:48:11;5.60;;;4.00;;
9174;SDS011;54374;50.196;8.050;2022-08-02T06:50:38;4.37;;;3.80;;
9174;SDS011;54374;50.196;8.050;2022-08-02T06:53:06;4.33;;;3.80;;
9174;SDS011;54374;50.196;8.050;2022-08-02T06:55:34;4.70;;;4.17;;
9174;SDS011;54374;50.196;8.050;2022-08-02T06:58:04;4.60;;;4.00;;
9174;SDS011;54374;50.196;8.050;2022-08-02T07:00:32;4.20;;;3.77;;
9174;SDS011;54374;50.196;8.050;2022-08-02T07:02:59;4.97;;;3.87;;
9174;SDS011;54374;50.196;8.050;2022-08-02T07:05:27;4.40;;;4.07;;
9174;SDS011;54374;50.196;8.050;2022-08-02T07:07:54;6.47;;;4.00;;
9174;SDS011;54374;50.196;8.050;2022-08-02T07:10:22;4.07;;;3.73;;
9174;SDS011;54374;50.196;8.050;2022-08-02T07:12:49;4.33;;;3.87;;
9174;SDS011;54374;50.196;8.050;2022-08-02T07:15:16;3.90;;;3.60;;
9174;SDS011;54374;50.196;8.050;2022-08-02T07:17:44;5.33;;;4.13;;
9174;SDS011;54374;50.196;8.050;2022-08-02T07:20:12;4.87;;;4.10;;
9174;SDS011;54374;50.196;8.050;2022-08-02T07:22:39;4.93;;;3.80;;
9174;SDS011;54374;50.196;8.050;2022-08-02T07:25:07;4.20;;;3.10;;
9174;SDS011;54374;50.196;8.050;2022-08-02T07:27:35;3.80;;;2.63;;
9174;SDS011;54374;50.196;8.050;2022-08-02T07:30:03;2.53;;;2.33;;
9174;SDS011;54374;50.196;8.050;2022-08-02T07:32:31;2.47;;;2.37;;
9174;SDS011;54374;50.196;8.050;2022-08-02T07:35:01;4.40;;;2.73;;
9174;SDS011;54374;50.196;8.050;2022-08-02T07:37:29;2.60;;;2.40;;
9174;SDS011;54374;50.196;8.050;2022-08-02T07:39:58;3.33;;;2.50;;
9174;SDS011;54374;50.196;8.050;2022-08-02T07:42:26;2.93;;;2.53;;
9174;SDS011;54374;50.196;8.050;2022-08-02T07:44:53;2.30;;;2.10;;
9174;SDS011;54374;50.196;8.050;2022-08-02T07:47:20;2.30;;;2.20;;
9174;SDS011;54374;50.196;8.050;2022-08-02T07:49:48;4.53;;;2.43;;
9174;SDS011;54374;50.196;8.050;2022-08-02T07:52:16;2.60;;;2.40;;
9174;SDS011;54374;50.196;8.050;2022-08-02T07:54:45;2.63;;;2.43;;
9174;SDS011;54374;50.196;8.050;2022-08-02T07:57:12;2.33;;;2.13;;
9174;SDS011;54374;50.196;8.050;2022-08-02T07:59:39;2.60;;;2.40;;
9174;SDS011;54374;50.196;8.050;2022-08-02T08:02:06;2.13;;;1.93;;
9174;SDS011;54374;50.196;8.050;2022-08-02T08:04:33;2.47;;;2.20;;
9174;SDS011;54374;50.196;8.050;2022-08-02T08:07:01;2.30;;;2.10;;
9174;SDS011;54374;50.196;8.050;2022-08-02T08:09:31;2.20;;;2.00;;
9174;SDS011;54374;50.196;8.050;2022-08-02T08:12:02;1.63;;;1.53;;
9174;SDS011;54374;50.196;8.050;2022-08-02T08:14:30;1.43;;;1.33;;
9174;SDS011;54374;50.196;8.050;2022-08-02T08:16:57;1.53;;;1.43;;
9174;SDS011;54374;50.196;8.050;2022-08-02T08:19:24;1.60;;;1.50;;
9174;SDS011;54374;50.196;8.050;2022-08-02T08:21:51;1.50;;;1.40;;
9174;SDS011;54374;50.196;8.050;2022-08-02T08:24:18;1.50;;;1.40;;
9174;SDS011;54374;50.196;8.050;2022-08-02T08:26:46;1.30;;;1.20;;
9174;SDS011;54374;50.196;8.050;2022-08-02T08:29:13;1.60;;;1.50;;
9174;SDS011;54374;50.196;8.050;2022-08-02T08:31:41;2.73;;;1.50;;
9174;SDS011;54374;50.196;8.050;2022-08-02T08:34:08;1.43;;;1.33;;
9174;SDS011;54374;50.196;8.050;2022-08-02T08:36:38;1.50;;;1.40;;
9174;SDS011;54374;50.196;8.050;2022-08-02T08:39:05;1.13;;;1.13;;
9174;SDS011;54374;50.196;8.050;2022-08-02T08:41:33;1.27;;;1.17;;
9174;SDS011;54374;50.196;8.050;2022-08-02T08:44:04;2.93;;;1.70;;
9174;SDS011;54374;50.196;8.050;2022-08-02T08:46:32;1.50;;;1.20;;
9174;SDS011;54374;50.196;8.050;2022-08-02T08:49:05;2.03;;;1.20;;
9174;SDS011;54374;50.196;8.050;2022-08-02T08:51:35;1.20;;;1.20;;
9174;SDS011;54374;50.196;8.050;2022-08-02T08:54:03;2.67;;;1.23;;
9174;SDS011;54374;50.196;8.050;2022-08-02T08:56:34;1.43;;;1.20;;
9174;SDS011;54374;50.196;8.050;2022-08-02T08:59:03;2.93;;;1.70;;
9174;SDS011;54374;50.196;8.050;2022-08-02T09:01:31;1.60;;;1.50;;
9174;SDS011;54374;50.196;8.050;2022-08-02T09:03:59;1.80;;;1.53;;
9174;SDS011;54374;50.196;8.050;2022-08-02T09:06:28;2.10;;;1.40;;
9174;SDS011;54374;50.196;8.050;2022-08-02T09:08:55;2.93;;;1.37;;
9174;SDS011;54374;50.196;8.050;2022-08-02T09:11:23;1.63;;;1.53;;
9174;SDS011;54374;50.196;8.050;2022-08-02T09:13:51;1.40;;;1.30;;
9174;SDS011;54374;50.196;8.050;2022-08-02T09:16:32;2.60;;;1.67;;
9174;SDS011;54374;50.196;8.050;2022-08-02T09:19:00;1.60;;;1.50;;
9174;SDS011;54374;50.196;8.050;2022-08-02T09:21:42;2.00;;;1.53;;
9174;SDS011;54374;50.196;8.050;2022-08-02T09:24:17;3.33;;;1.50;;
9174;SDS011;54374;50.196;8.050;2022-08-02T09:26:45;1.50;;;1.40;;
9174;SDS011;54374;50.196;8.050;2022-08-02T09:29:13;1.60;;;1.50;;
9174;SDS011;54374;50.196;8.050;2022-08-02T09:31:42;1.40;;;1.30;;
9174;SDS011;54374;50.196;8.050;2022-08-02T09:34:10;1.77;;;1.63;;
9174;SDS011;54374;50.196;8.050;2022-08-02T09:36:38;1.37;;;1.27;;
9174;SDS011;54374;50.196;8.050;2022-08-02T09:39:07;1.90;;;1.80;;
9174;SDS011;54374;50.196;8.050;2022-08-02T09:41:35;2.73;;;1.20;;
9174;SDS011;54374;50.196;8.050;2022-08-02T09:44:06;7.70;;;1.87;;
9174;SDS011;54374;50.196;8.050;2022-08-02T09:46:35;3.53;;;1.37;;
9174;SDS011;54374;50.196;8.050;2022-08-02T09:49:05;2.40;;;1.67;;
9174;SDS011;54374;50.196;8.050;2022-08-02T09:51:34;1.50;;;1.40;;
9174;SDS011;54374;50.196;8.050;2022-08-02T09:54:03;3.13;;;2.50;;
9174;SDS011;54374;50.196;8.050;2022-08-02T09:56:40;2.60;;;1.37;;
9174;SDS011;54374;50.196;8.050;2022-08-02T09:59:10;2.40;;;1.60;;
9174;SDS011;54374;50.196;8.050;2022-08-02T10:01:38;1.47;;;1.30;;
9174;SDS011;54374;50.196;8.050;2022-08-02T10:04:09;2.80;;;1.30;;
9174;SDS011;54374;50.196;8.050;2022-08-02T10:06:38;1.90;;;1.60;;
9174;SDS011;54374;50.196;8.050;2022-08-02T10:09:07;5.37;;;1.50;;
9174;SDS011;54374;50.196;8.050;2022-08-02T10:11:35;1.77;;;1.33;;
9174;SDS011;54374;50.196;8.050;2022-08-02T10:14:02;4.97;;;1.60;;
9174;SDS011;54374;50.196;8.050;2022-08-02T10:16:32;1.97;;;1.30;;
9174;SDS011;54374;50.196;8.050;2022-08-02T10:19:00;1.43;;;1.33;;
9174;SDS011;54374;50.196;8.050;2022-08-02T10:21:31;3.40;;;1.47;;
9174;SDS011;54374;50.196;8.050;2022-08-02T10:24:04;1.60;;;1.50;;
9174;SDS011;54374;50.196;8.050;2022-08-02T10:26:33;1.30;;;1.20;;
9174;SDS011;54374;50.196;8.050;2022-08-02T10:29:01;1.40;;;1.27;;
9174;SDS011;54374;50.196;8.050;2022-08-02T10:31:30;1.30;;;1.20;;
9174;SDS011;54374;50.196;8.050;2022-08-02T10:34:01;2.97;;;1.37;;
9174;SDS011;54374;50.196;8.050;2022-08-02T10:36:34;4.30;;;1.60;;
9174;SDS011;54374;50.196;8.050;2022-08-02T10:39:03;1.47;;;1.30;;
9174;SDS011;54374;50.196;8.050;2022-08-02T10:41:41;1.60;;;1.50;;
9174;SDS011;54374;50.196;8.050;2022-08-02T10:44:18;1.40;;;1.30;;
9174;SDS011;54374;50.196;8.050;2022-08-02T10:46:51;2.03;;;1.70;;
9174;SDS011;54374;50.196;8.050;2022-08-02T10:49:33;1.80;;;1.50;;
9174;SDS011;54374;50.196;8.050;2022-08-02T10:52:15;1.53;;;1.43;;
9174;SDS011;54374;50.196;8.050;2022-08-02T10:54:46;1.90;;;1.60;;
9174;SDS011;54374;50.196;8.050;2022-08-02T10:57:17;2.60;;;1.40;;
9174;SDS011;54374;50.196;8.050;2022-08-02T10:59:47;1.60;;;1.50;;
9174;SDS011;54374;50.196;8.050;2022-08-02T11:05:04;1.70;;;1.40;;
9174;SDS011;54374;50.196;8.050;2022-08-02T11:07:43;1.37;;;1.27;;
9174;SDS011;54374;50.196;8.050;2022-08-02T11:13:01;1.40;;;1.30;;
9174;SDS011;54374;50.196;8.050;2022-08-02T11:15:45;4.73;;;1.50;;
9174;SDS011;54374;50.196;8.050;2022-08-02T11:18:14;2.73;;;1.50;;
9174;SDS011;54374;50.196;8.050;2022-08-02T11:20:42;1.90;;;1.33;;
9174;SDS011;54374;50.196;8.050;2022-08-02T11:29:11;1.63;;;1.53;;
9174;SDS011;54374;50.196;8.050;2022-08-02T11:31:39;1.33;;;1.17;;
9174;SDS011;54374;50.196;8.050;2022-08-02T11:34:08;2.00;;;1.53;;
9174;SDS011;54374;50.196;8.050;2022-08-02T11:36:42;1.70;;;1.60;;
9174;SDS011;54374;50.196;8.050;2022-08-02T11:39:15;1.87;;;1.70;;
9174;SDS011;54374;50.196;8.050;2022-08-02T11:41:49;2.50;;;2.30;;
9174;SDS011;54374;50.196;8.050;2022-08-02T11:44:17;1.57;;;1.47;;
9174;SDS011;54374;50.196;8.050;2022-08-02T11:46:45;1.63;;;1.53;;
9174;SDS011;54374;50.196;8.050;2022-08-02T11:49:19;1.23;;;1.20;;
9174;SDS011;54374;50.196;8.050;2022-08-02T11:51:50;1.67;;;1.57;;
9174;SDS011;54374;50.196;8.050;2022-08-02T11:54:24;5.53;;;1.73;;
9174;SDS011;54374;50.196;8.050;2022-08-02T11:56:52;1.77;;;1.67;;
9174;SDS011;54374;50.196;8.050;2022-08-02T11:59:20;1.60;;;1.50;;
9174;SDS011;54374;50.196;8.050;2022-08-02T12:01:47;2.73;;;1.37;;
9174;SDS011;54374;50.196;8.050;2022-08-02T12:04:15;2.60;;;1.40;;
9174;SDS011;54374;50.196;8.050;2022-08-02T12:06:44;1.63;;;1.53;;
9174;SDS011;54374;50.196;8.050;2022-08-02T12:09:20;1.90;;;1.80;;
9174;SDS011;54374;50.196;8.050;2022-08-02T12:11:48;2.20;;;1.70;;
9174;SDS011;54374;50.196;8.050;2022-08-02T12:14:16;2.37;;;1.50;;
9174;SDS011;54374;50.196;8.050;2022-08-02T12:16:44;2.83;;;1.87;;
9174;SDS011;54374;50.196;8.050;2022-08-02T12:19:30;1.90;;;1.70;;
9174;SDS011;54374;50.196;8.050;2022-08-02T12:22:11;3.30;;;1.50;;
9174;SDS011;54374;50.196;8.050;2022-08-02T12:24:41;2.07;;;1.87;;
9174;SDS011;54374;50.196;8.050;2022-08-02T12:27:26;1.47;;;1.37;;
9174;SDS011;54374;50.196;8.050;2022-08-02T12:29:58;1.67;;;1.50;;
9174;SDS011;54374;50.196;8.050;2022-08-02T12:32:30;1.80;;;1.70;;
9174;SDS011;54374;50.196;8.050;2022-08-02T12:35:02;1.80;;;1.53;;
9174;SDS011;54374;50.196;8.050;2022-08-02T12:37:31;1.70;;;1.60;;
9174;SDS011;54374;50.196;8.050;2022-08-02T12:39:58;1.60;;;1.50;;
9174;SDS011;54374;50.196;8.050;2022-08-02T12:42:48;2.73;;;1.50;;
9174;SDS011;54374;50.196;8.050;2022-08-02T12:45:18;2.00;;;1.80;;
9174;SDS011;54374;50.196;8.050;2022-08-02T12:47:45;1.37;;;1.27;;
9174;SDS011;54374;50.196;8.050;2022-08-02T12:50:15;3.40;;;1.40;;
9174;SDS011;54374;50.196;8.050;2022-08-02T12:52:46;1.67;;;1.57;;
9174;SDS011;54374;50.196;8.050;2022-08-02T12:55:14;1.60;;;1.50;;
9174;SDS011;54374;50.196;8.050;2022-08-02T12:57:54;2.33;;;1.57;;
9174;SDS011;54374;50.196;8.050;2022-08-02T13:00:24;1.90;;;1.80;;
9174;SDS011;54374;50.196;8.050;2022-08-02T13:02:54;1.70;;;1.60;;
9174;SDS011;54374;50.196;8.050;2022-08-02T13:05:22;1.93;;;1.83;;
9174;SDS011;54374;50.196;8.050;2022-08-02T13:07:49;1.57;;;1.47;;
9174;SDS011;54374;50.196;8.050;2022-08-02T13:10:17;1.80;;;1.70;;
9174;SDS011;54374;50.196;8.050;2022-08-02T13:12:45;2.10;;;1.87;;
9174;SDS011;54374;50.196;8.050;2022-08-02T13:15:15;4.03;;;1.50;;
9174;SDS011;54374;50.196;8.050;2022-08-02T13:17:42;2.83;;;1.60;;
9174;SDS011;54374;50.196;8.050;2022-08-02T13:20:10;2.10;;;1.90;;
9174;SDS011;54374;50.196;8.050;2022-08-02T13:22:39;1.50;;;1.40;;
9174;SDS011;54374;50.196;8.050;2022-08-02T13:25:07;1.93;;;1.47;;
9174;SDS011;54374;50.196;8.050;2022-08-02T13:27:34;3.53;;;1.70;;
9174;SDS011;54374;50.196;8.050;2022-08-02T13:30:03;1.57;;;1.47;;
9174;SDS011;54374;50.196;8.050;2022-08-02T13:32:33;1.70;;;1.60;;
9174;SDS011;54374;50.196;8.050;2022-08-02T13:35:01;2.50;;;1.63;;
9174;SDS011;54374;50.196;8.050;2022-08-02T13:37:30;1.87;;;1.73;;
9174;SDS011;54374;50.196;8.050;2022-08-02T13:39:57;1.90;;;1.40;;
9174;SDS011;54374;50.196;8.050;2022-08-02T13:42:24;2.03;;;1.50;;
9174;SDS011;54374;50.196;8.050;2022-08-02T13:44:51;1.83;;;1.50;;
9174;SDS011;54374;50.196;8.050;2022-08-02T13:47:18;1.50;;;1.40;;
9174;SDS011;54374;50.196;8.050;2022-08-02T13:49:47;2.07;;;1.43;;
9174;SDS011;54374;50.196;8.050;2022-08-02T13:52:15;3.67;;;1.50;;
9174;SDS011;54374;50.196;8.050;2022-08-02T13:54:42;2.17;;;1.83;;
9174;SDS011;54374;50.196;8.050;2022-08-02T13:57:09;2.07;;;1.90;;
9174;SDS011;54374;50.196;8.050;2022-08-02T13:59:36;1.80;;;1.70;;
9174;SDS011;54374;50.196;8.050;2022-08-02T14:02:03;1.63;;;1.53;;
9174;SDS011;54374;50.196;8.050;2022-08-02T14:04:30;2.50;;;1.73;;
9174;SDS011;54374;50.196;8.050;2022-08-02T14:06:59;2.20;;;2.00;;
9174;SDS011;54374;50.196;8.050;2022-08-02T14:09:26;1.50;;;1.40;;
9174;SDS011;54374;50.196;8.050;2022-08-02T14:11:56;2.20;;;1.83;;
9174;SDS011;54374;50.196;8.050;2022-08-02T14:14:23;1.80;;;1.70;;
9174;SDS011;54374;50.196;8.050;2022-08-02T14:16:51;5.03;;;2.00;;
9174;SDS011;54374;50.196;8.050;2022-08-02T14:19:18;1.87;;;1.70;;
9174;SDS011;54374;50.196;8.050;2022-08-02T14:21:46;1.80;;;1.70;;
9174;SDS011;54374;50.196;8.050;2022-08-02T14:24:15;1.80;;;1.70;;
9174;SDS011;54374;50.196;8.050;2022-08-02T14:26:42;2.10;;;1.87;;
9174;SDS011;54374;50.196;8.050;2022-08-02T14:29:10;3.33;;;1.63;;
9174;SDS011;54374;50.196;8.050;2022-08-02T14:31:37;2.10;;;1.80;;
9174;SDS011;54374;50.196;8.050;2022-08-02T14:34:04;2.20;;;2.00;;
9174;SDS011;54374;50.196;8.050;2022-08-02T14:36:31;4.23;;;1.90;;
9174;SDS011;54374;50.196;8.050;2022-08-02T14:38:58;1.93;;;1.80;;
9174;SDS011;54374;50.196;8.050;2022-08-02T14:41:28;2.43;;;1.40;;
9174;SDS011;54374;50.196;8.050;2022-08-02T14:43:58;1.80;;;1.70;;
9174;SDS011;54374;50.196;8.050;2022-08-02T14:46:36;5.37;;;2.07;;
9174;SDS011;54374;50.196;8.050;2022-08-02T14:49:04;1.93;;;1.83;;
9174;SDS011;54374;50.196;8.050;2022-08-02T14:51:33;2.10;;;1.90;;
9174;SDS011;54374;50.196;8.050;2022-08-02T14:54:02;1.80;;;1.70;;
9174;SDS011;54374;50.196;8.050;2022-08-02T14:56:31;2.37;;;2.17;;
9174;SDS011;54374;50.196;8.050;2022-08-02T14:58:59;3.07;;;1.77;;
9174;SDS011;54374;50.196;8.050;2022-08-02T15:01:26;2.03;;;1.93;;
9174;SDS011;54374;50.196;8.050;2022-08-02T15:03:53;2.30;;;2.10;;
9174;SDS011;54374;50.196;8.050;2022-08-02T15:06:23;1.80;;;1.70;;
9174;SDS011;54374;50.196;8.050;2022-08-02T15:08:52;6.40;;;1.90;;
9174;SDS011;54374;50.196;8.050;2022-08-02T15:11:19;2.00;;;1.90;;
9174;SDS011;54374;50.196;8.050;2022-08-02T15:13:48;2.10;;;1.93;;
9174;SDS011;54374;50.196;8.050;2022-08-02T15:16:15;2.30;;;1.97;;
9174;SDS011;54374;50.196;8.050;2022-08-02T15:18:42;3.17;;;2.10;;
9174;SDS011;54374;50.196;8.050;2022-08-02T15:21:09;2.30;;;2.20;;
9174;SDS011;54374;50.196;8.050;2022-08-02T15:23:36;2.20;;;1.67;;
9174;SDS011;54374;50.196;8.050;2022-08-02T15:26:04;2.10;;;1.90;;
9174;SDS011;54374;50.196;8.050;2022-08-02T15:28:31;2.33;;;1.83;;
9174;SDS011;54374;50.196;8.050;2022-08-02T15:31:00;2.37;;;2.20;;